createdAt,value
2019-03-15T00:00:16.863Z,88.4
2019-03-15T00:01:17.099Z,87.9
2019-03-15T00:02:16.379Z,88.0
2019-03-15T00:03:16.652Z,88.2
2019-03-15T00:04:16.919Z,88.4
2019-03-15T00:05:17.185Z,88.0
2019-03-15T00:06:16.445Z,88.0
2019-03-15T00:07:16.716Z,88.1
2019-03-15T00:08:16.978Z,88.2
2019-03-15T00:09:17.237Z,88.3
2019-03-15T00:10:16.526Z,88.3
2019-03-15T00:11:16.563Z,88.1
2019-03-15T00:12:16.828Z,88.3
2019-03-15T00:13:17.089Z,87.5
2019-03-15T00:14:16.359Z,87.5
2019-03-15T00:15:16.640Z,87.3
2019-03-15T00:16:16.909Z,87.6
2019-03-15T00:17:17.198Z,87.0
2019-03-15T00:18:16.455Z,86.3
2019-03-15T00:19:16.719Z,86.2
2019-03-15T00:20:17.008Z,86.8
2019-03-15T00:21:17.027Z,86.6
2019-03-15T00:22:16.288Z,86.4
2019-03-15T00:23:16.556Z,86.8
2019-03-15T00:24:16.814Z,86.8
2019-03-15T00:25:17.082Z,86.4
2019-03-15T00:26:16.345Z,86.4
2019-03-15T00:27:16.608Z,86.3
2019-03-15T00:28:16.899Z,87.0
2019-03-15T00:29:17.163Z,86.8
2019-03-15T00:30:16.449Z,87.3
2019-03-15T00:31:16.514Z,87.3
2019-03-15T00:32:16.783Z,87.4
2019-03-15T00:33:17.052Z,87.8
2019-03-15T00:34:16.882Z,87.1
2019-03-15T00:35:17.148Z,87.3
2019-03-15T00:36:16.417Z,87.5
2019-03-15T00:37:16.673Z,87.8
2019-03-15T00:38:16.941Z,88.0
2019-03-15T00:39:17.211Z,88.3
2019-03-15T00:40:16.971Z,87.5
2019-03-15T00:41:16.536Z,87.6
2019-03-15T00:42:16.808Z,87.6
2019-03-15T00:43:17.067Z,88.0
2019-03-15T00:44:16.331Z,87.8
2019-03-15T00:45:16.599Z,87.9
2019-03-15T00:46:16.866Z,87.9
2019-03-15T00:47:17.633Z,88.2
2019-03-15T00:48:16.910Z,88.2
2019-03-15T00:49:17.208Z,88.5
2019-03-15T00:50:16.468Z,88.7
2019-03-15T00:51:16.521Z,88.7
2019-03-15T00:52:16.790Z,88.3
2019-03-15T00:53:17.084Z,88.2
2019-03-15T00:54:16.359Z,88.8
2019-03-15T00:55:16.636Z,89.1
2019-03-15T00:56:16.904Z,88.9
2019-03-15T00:57:17.188Z,89.1
2019-03-15T00:58:16.476Z,88.5
2019-03-15T00:59:16.739Z,88.8
2019-03-15T01:00:17.018Z,88.8
2019-03-15T01:01:17.079Z,89.2
2019-03-15T01:02:16.356Z,88.8
2019-03-15T01:03:16.636Z,88.9
2019-03-15T01:04:16.903Z,88.8
2019-03-15T01:05:17.174Z,88.7
2019-03-15T01:06:16.440Z,88.6
2019-03-15T01:07:16.709Z,88.9
2019-03-15T01:08:16.975Z,89.0
2019-03-15T01:09:17.248Z,89.2
2019-03-15T01:10:16.503Z,88.8
2019-03-15T01:11:16.576Z,89.1
2019-03-15T01:12:16.848Z,88.9
2019-03-15T01:13:17.104Z,89.0
2019-03-15T01:14:16.360Z,89.0
2019-03-15T01:15:16.615Z,89.4
2019-03-15T01:16:16.895Z,89.5
2019-03-15T01:17:17.168Z,89.5
2019-03-15T01:18:16.434Z,89.2
2019-03-15T01:19:16.957Z,89.5
2019-03-15T01:20:17.228Z,89.5
2019-03-15T01:21:16.278Z,89.5
2019-03-15T01:22:16.535Z,89.5
2019-03-15T01:23:16.796Z,89.5
2019-03-15T01:24:17.062Z,89.2
2019-03-15T01:25:16.337Z,89.3
2019-03-15T01:26:16.598Z,89.3
2019-03-15T01:27:16.864Z,89.5
2019-03-15T01:28:17.132Z,89.7
2019-03-15T01:29:16.406Z,89.7
2019-03-15T01:30:16.686Z,90.0
2019-03-15T01:31:16.728Z,89.8
2019-03-15T01:32:16.997Z,89.8
2019-03-15T01:33:16.264Z,89.6
2019-03-15T01:34:16.536Z,89.6
2019-03-15T01:35:16.834Z,89.5
2019-03-15T01:36:17.109Z,89.8
2019-03-15T01:37:16.390Z,89.8
2019-03-15T01:38:16.658Z,89.8
2019-03-15T01:39:16.929Z,89.2
2019-03-15T01:40:17.210Z,89.0
2019-03-15T01:41:16.264Z,89.2
2019-03-15T01:42:16.536Z,89.4
2019-03-15T01:43:16.796Z,89.3
2019-03-15T01:44:17.058Z,89.0
2019-03-15T01:45:16.323Z,88.7
2019-03-15T01:46:16.586Z,88.3
2019-03-15T01:47:16.852Z,88.2
2019-03-15T01:48:17.210Z,87.4
2019-03-15T01:49:16.475Z,87.3
2019-03-15T01:50:16.755Z,87.5
2019-03-15T01:51:16.809Z,87.5
2019-03-15T01:52:17.075Z,86.8
2019-03-15T01:53:16.347Z,86.9
2019-03-15T01:54:16.612Z,86.8
2019-03-15T01:55:16.985Z,86.8
2019-03-15T01:56:16.252Z,86.7
2019-03-15T01:57:16.533Z,86.9
2019-03-15T01:58:16.798Z,86.6
2019-03-15T01:59:17.061Z,86.7
2019-03-15T02:00:16.337Z,87.0
2019-03-15T02:01:16.395Z,87.2
2019-03-15T02:02:16.659Z,87.2
2019-03-15T02:03:16.929Z,87.2
2019-03-15T02:04:17.207Z,86.8
2019-03-15T02:05:16.474Z,87.0
2019-03-15T02:06:17.678Z,86.5
2019-03-15T02:07:16.967Z,86.2
2019-03-15T02:08:17.237Z,86.0
2019-03-15T02:09:16.503Z,86.5
2019-03-15T02:10:16.779Z,86.2
2019-03-15T02:11:16.826Z,86.1
2019-03-15T02:12:17.089Z,86.3
2019-03-15T02:13:16.370Z,86.5
2019-03-15T02:14:16.635Z,86.3
2019-03-15T02:15:16.904Z,86.3
2019-03-15T02:16:17.159Z,86.7
2019-03-15T02:17:16.432Z,86.8
2019-03-15T02:18:16.705Z,86.8
2019-03-15T02:19:16.982Z,86.7
2019-03-15T02:20:17.697Z,86.7
2019-03-15T02:21:16.311Z,86.8
2019-03-15T02:22:16.952Z,86.6
2019-03-15T02:23:17.212Z,86.6
2019-03-15T02:24:16.473Z,86.7
2019-03-15T02:25:16.732Z,86.9
2019-03-15T02:26:17.002Z,86.9
2019-03-15T02:27:16.265Z,86.9
2019-03-15T02:28:16.532Z,87.1
2019-03-15T02:29:16.792Z,86.9
2019-03-15T02:30:17.067Z,87.5
2019-03-15T02:31:17.108Z,87.2
2019-03-15T02:32:16.372Z,87.2
2019-03-15T02:33:16.657Z,87.2
2019-03-15T02:34:16.936Z,87.0
2019-03-15T02:35:17.217Z,87.1
2019-03-15T02:36:16.490Z,87.0
2019-03-15T02:37:16.792Z,87.6
2019-03-15T02:38:17.047Z,87.8
2019-03-15T02:39:16.312Z,87.7
2019-03-15T02:40:16.581Z,87.8
2019-03-15T02:41:16.626Z,87.8
2019-03-15T02:42:16.905Z,87.5
2019-03-15T02:43:17.209Z,87.6
2019-03-15T02:44:16.473Z,87.5
2019-03-15T02:45:16.752Z,88.1
2019-03-15T02:46:17.046Z,87.8
2019-03-15T02:47:16.319Z,87.7
2019-03-15T02:48:16.600Z,87.7
2019-03-15T02:49:16.870Z,87.7
2019-03-15T02:50:17.161Z,87.3
2019-03-15T02:51:17.194Z,87.3
2019-03-15T02:52:16.458Z,87.3
2019-03-15T02:53:16.726Z,87.2
2019-03-15T02:54:16.999Z,87.3
2019-03-15T02:55:16.265Z,87.3
2019-03-15T02:56:16.549Z,87.5
2019-03-15T02:57:16.828Z,87.5
2019-03-15T02:58:17.101Z,87.3
2019-03-15T02:59:16.375Z,87.2
2019-03-15T03:00:16.665Z,87.3
2019-03-15T03:01:16.721Z,87.8
2019-03-15T03:02:16.992Z,87.5
2019-03-15T03:03:16.261Z,87.5
2019-03-15T03:04:16.539Z,87.5
2019-03-15T03:05:16.813Z,87.4
2019-03-15T03:06:17.086Z,87.7
2019-03-15T03:07:16.347Z,87.3
2019-03-15T03:08:16.610Z,87.4
2019-03-15T03:09:16.879Z,87.5
2019-03-15T03:10:17.167Z,87.5
2019-03-15T03:11:17.206Z,87.2
2019-03-15T03:12:17.788Z,87.3
2019-03-15T03:13:17.089Z,87.4
2019-03-15T03:14:16.365Z,87.4
2019-03-15T03:15:16.634Z,87.4
2019-03-15T03:16:19.063Z,87.8
2019-03-15T03:17:16.650Z,87.8
2019-03-15T03:18:16.933Z,87.8
2019-03-15T03:19:17.528Z,87.8
2019-03-15T03:20:16.811Z,87.7
2019-03-15T03:21:16.839Z,87.6
2019-03-15T03:22:17.185Z,87.3
2019-03-15T03:23:16.505Z,87.5
2019-03-15T03:24:16.786Z,87.1
2019-03-15T03:25:17.715Z,87.3
2019-03-15T03:26:16.987Z,87.2
2019-03-15T03:27:17.385Z,87.3
2019-03-15T03:28:16.666Z,87.2
2019-03-15T03:29:16.937Z,87.2
2019-03-15T03:30:17.566Z,87.0
2019-03-15T03:31:16.518Z,87.1
2019-03-15T03:32:16.943Z,86.9
2019-03-15T03:33:17.230Z,87.0
2019-03-15T03:34:16.522Z,86.5
2019-03-15T03:35:16.921Z,86.9
2019-03-15T03:36:17.216Z,87.2
2019-03-15T03:37:16.494Z,87.2
2019-03-15T03:38:16.756Z,87.0
2019-03-15T03:39:17.027Z,87.0
2019-03-15T03:40:20.848Z,86.7
2019-03-15T03:41:16.371Z,86.8
2019-03-15T03:42:16.690Z,86.7
2019-03-15T03:43:16.952Z,86.8
2019-03-15T03:44:17.241Z,86.9
2019-03-15T03:45:16.512Z,86.7
2019-03-15T03:46:16.779Z,86.8
2019-03-15T03:47:17.076Z,87.1
2019-03-15T03:48:16.351Z,86.9
2019-03-15T03:49:16.621Z,86.8
2019-03-15T03:50:16.895Z,87.0
2019-03-15T03:51:16.948Z,87.1
2019-03-15T03:52:17.206Z,87.4
2019-03-15T03:53:16.467Z,87.1
2019-03-15T03:54:16.745Z,86.8
2019-03-15T03:55:17.014Z,86.8
2019-03-15T03:56:17.512Z,86.8
2019-03-15T03:57:16.813Z,87.0
2019-03-15T03:58:17.067Z,87.2
2019-03-15T03:59:16.332Z,87.2
2019-03-15T04:00:16.618Z,87.5
2019-03-15T04:01:16.673Z,87.5
2019-03-15T04:02:16.943Z,87.1
2019-03-15T04:03:17.213Z,87.1
2019-03-15T04:04:16.484Z,87.2
2019-03-15T04:05:16.755Z,87.4
2019-03-15T04:06:17.027Z,87.3
2019-03-15T04:07:16.290Z,87.2
2019-03-15T04:08:16.559Z,87.3
2019-03-15T04:09:16.818Z,87.2
2019-03-15T04:10:17.131Z,87.3
2019-03-15T04:11:17.121Z,87.6
2019-03-15T04:12:16.386Z,87.5
2019-03-15T04:13:16.710Z,87.4
2019-03-15T04:14:16.971Z,87.4
2019-03-15T04:15:17.245Z,87.7
2019-03-15T04:16:16.532Z,87.5
2019-03-15T04:17:16.799Z,87.4
2019-03-15T04:18:17.058Z,87.8
2019-03-15T04:19:16.332Z,88.0
2019-03-15T04:20:16.715Z,87.8
2019-03-15T04:21:16.669Z,87.9
2019-03-15T04:22:16.937Z,87.3
2019-03-15T04:23:17.207Z,87.3
2019-03-15T04:24:16.466Z,87.2
2019-03-15T04:25:16.746Z,87.0
2019-03-15T04:26:17.221Z,87.2
2019-03-15T04:27:16.492Z,87.7
2019-03-15T04:28:16.760Z,87.8
2019-03-15T04:29:17.038Z,87.7
2019-03-15T04:30:16.317Z,87.8
2019-03-15T04:31:16.379Z,87.8
2019-03-15T04:32:16.641Z,88.1
2019-03-15T04:33:16.908Z,87.9
2019-03-15T04:34:17.176Z,88.0
2019-03-15T04:35:16.448Z,87.7
2019-03-15T04:36:17.095Z,87.8
2019-03-15T04:37:16.384Z,87.1
2019-03-15T04:38:16.647Z,87.3
2019-03-15T04:39:16.910Z,87.3
2019-03-15T04:40:17.219Z,87.0
2019-03-15T04:41:17.206Z,86.7
2019-03-15T04:42:16.467Z,87.2
2019-03-15T04:43:16.736Z,87.2
2019-03-15T04:44:16.998Z,87.1
2019-03-15T04:45:16.260Z,87.0
2019-03-15T04:46:16.558Z,87.1
2019-03-15T04:47:16.836Z,87.2
2019-03-15T04:48:17.102Z,87.0
2019-03-15T04:49:16.370Z,86.8
2019-03-15T04:50:16.661Z,85.4
2019-03-15T04:51:16.703Z,85.5
2019-03-15T04:52:16.968Z,86.5
2019-03-15T04:53:17.246Z,86.8
2019-03-15T04:54:16.514Z,86.6
2019-03-15T04:55:16.780Z,86.7
2019-03-15T04:56:17.053Z,86.8
2019-03-15T04:57:16.318Z,86.9
2019-03-15T04:58:16.573Z,86.7
2019-03-15T04:59:16.840Z,86.8
2019-03-15T05:00:17.151Z,86.7
2019-03-15T05:01:17.175Z,87.0
2019-03-15T05:02:16.439Z,87.6
2019-03-15T05:03:16.698Z,88.0
2019-03-15T05:04:16.990Z,88.1
2019-03-15T05:05:16.255Z,87.9
2019-03-15T05:06:16.714Z,87.9
2019-03-15T05:07:16.992Z,88.2
2019-03-15T05:08:16.259Z,87.9
2019-03-15T05:09:16.521Z,87.7
2019-03-15T05:10:16.792Z,87.9
2019-03-15T05:11:16.840Z,87.8
2019-03-15T05:12:16.852Z,87.9
2019-03-15T05:13:17.129Z,87.8
2019-03-15T05:14:16.392Z,87.7
2019-03-15T05:15:16.661Z,87.8
2019-03-15T05:16:16.936Z,88.2
2019-03-15T05:17:16.279Z,87.6
2019-03-15T05:18:16.543Z,87.8
2019-03-15T05:19:16.800Z,88.5
2019-03-15T05:20:17.294Z,89.0
2019-03-15T05:21:17.132Z,89.0
2019-03-15T05:22:16.407Z,89.2
2019-03-15T05:23:16.673Z,89.2
2019-03-15T05:24:16.980Z,89.0
2019-03-15T05:25:17.352Z,88.8
2019-03-15T05:26:16.632Z,89.0
2019-03-15T05:27:16.906Z,89.2
2019-03-15T05:28:17.165Z,88.4
2019-03-15T05:29:16.427Z,88.5
2019-03-15T05:30:16.703Z,88.3
2019-03-15T05:31:16.765Z,88.5
2019-03-15T05:32:17.034Z,88.4
2019-03-15T05:33:16.315Z,88.3
2019-03-15T05:34:16.580Z,88.4
2019-03-15T05:35:16.848Z,88.9
2019-03-15T05:36:17.114Z,88.9
2019-03-15T05:37:16.377Z,89.0
2019-03-15T05:38:16.651Z,89.0
2019-03-15T05:39:16.915Z,89.2
2019-03-15T05:40:17.189Z,89.3
2019-03-15T05:41:17.246Z,89.3
2019-03-15T05:42:16.509Z,89.6
2019-03-15T05:43:16.778Z,89.5
2019-03-15T05:44:17.130Z,89.5
2019-03-15T05:45:16.408Z,89.8
2019-03-15T05:46:16.681Z,89.8
2019-03-15T05:47:16.944Z,89.6
2019-03-15T05:48:17.211Z,89.7
2019-03-15T05:49:16.478Z,89.6
2019-03-15T05:50:16.769Z,89.5
2019-03-15T05:51:16.806Z,89.4
2019-03-15T05:52:17.074Z,89.6
2019-03-15T05:53:16.346Z,89.6
2019-03-15T05:54:16.621Z,89.4
2019-03-15T05:55:16.892Z,89.3
2019-03-15T05:56:17.170Z,89.2
2019-03-15T05:57:16.432Z,89.3
2019-03-15T05:58:16.696Z,89.6
2019-03-15T05:59:16.961Z,89.7
2019-03-15T06:00:17.314Z,89.6
2019-03-15T06:01:16.387Z,89.2
2019-03-15T06:02:16.649Z,89.2
2019-03-15T06:03:16.920Z,89.1
2019-03-15T06:04:17.200Z,89.0
2019-03-15T06:05:16.483Z,89.2
2019-03-15T06:06:16.750Z,89.2
2019-03-15T06:07:17.011Z,89.2
2019-03-15T06:08:16.276Z,89.2
2019-03-15T06:09:16.548Z,89.0
2019-03-15T06:10:16.816Z,89.2
2019-03-15T06:11:16.887Z,89.3
2019-03-15T06:12:17.149Z,89.1
2019-03-15T06:13:16.418Z,89.2
2019-03-15T06:14:16.683Z,89.0
2019-03-15T06:15:16.947Z,88.9
2019-03-15T06:16:17.223Z,88.8
2019-03-15T06:17:16.494Z,89.1
2019-03-15T06:18:16.765Z,88.8
2019-03-15T06:19:17.049Z,88.8
2019-03-15T06:20:16.350Z,88.7
2019-03-15T06:21:16.378Z,88.8
2019-03-15T06:22:16.637Z,89.0
2019-03-15T06:23:17.206Z,88.5
2019-03-15T06:24:16.477Z,88.4
2019-03-15T06:25:16.757Z,88.5
2019-03-15T06:26:17.023Z,88.7
2019-03-15T06:27:16.283Z,88.9
2019-03-15T06:28:16.555Z,89.0
2019-03-15T06:29:16.820Z,89.0
2019-03-15T06:30:17.079Z,88.8
2019-03-15T06:31:17.141Z,89.0
2019-03-15T06:32:16.398Z,88.6
2019-03-15T06:33:16.691Z,88.5
2019-03-15T06:34:16.960Z,88.2
2019-03-15T06:35:17.227Z,88.3
2019-03-15T06:36:16.513Z,88.2
2019-03-15T06:37:16.776Z,88.4
2019-03-15T06:38:17.075Z,88.3
2019-03-15T06:39:16.358Z,88.2
2019-03-15T06:40:16.643Z,88.0
2019-03-15T06:41:16.679Z,88.1
2019-03-15T06:42:16.943Z,87.9
2019-03-15T06:43:17.210Z,88.0
2019-03-15T06:44:16.470Z,87.9
2019-03-15T06:45:16.732Z,88.2
2019-03-15T06:46:17.002Z,88.1
2019-03-15T06:47:16.357Z,88.5
2019-03-15T06:48:16.632Z,87.8
2019-03-15T06:49:17.083Z,87.8
2019-03-15T06:50:16.364Z,87.8
2019-03-15T06:51:16.419Z,87.8
2019-03-15T06:52:16.691Z,87.5
2019-03-15T06:53:16.955Z,87.3
2019-03-15T06:54:17.221Z,87.5
2019-03-15T06:55:16.488Z,87.6
2019-03-15T06:56:16.763Z,87.5
2019-03-15T06:57:17.030Z,87.7
2019-03-15T06:58:16.305Z,87.8
2019-03-15T06:59:16.562Z,87.5
2019-03-15T07:00:16.837Z,87.6
2019-03-15T07:01:16.910Z,87.6
2019-03-15T07:02:17.189Z,87.2
2019-03-15T07:03:16.462Z,87.0
2019-03-15T07:04:16.725Z,87.1
2019-03-15T07:05:16.995Z,86.8
2019-03-15T07:06:16.264Z,86.8
2019-03-15T07:07:16.541Z,86.8
2019-03-15T07:08:16.799Z,86.8
2019-03-15T07:09:17.063Z,86.9
2019-03-15T07:10:16.339Z,86.6
2019-03-15T07:11:16.418Z,86.3
2019-03-15T07:12:16.685Z,86.0
2019-03-15T07:13:16.938Z,86.2
2019-03-15T07:14:17.219Z,86.5
2019-03-15T07:15:16.500Z,86.2
2019-03-15T07:16:16.762Z,86.3
2019-03-15T07:17:17.020Z,86.3
2019-03-15T07:18:19.024Z,86.4
2019-03-15T07:19:28.930Z,86.2
2019-03-15T07:20:16.580Z,86.3
2019-03-15T07:21:16.550Z,86.3
2019-03-15T07:22:20.253Z,86.2
2019-03-15T07:23:16.591Z,86.7
2019-03-15T07:24:25.768Z,86.3
2019-03-15T07:25:17.121Z,85.8
2019-03-15T07:26:16.390Z,86.0
2019-03-15T07:27:16.655Z,86.1
2019-03-15T07:28:16.910Z,85.4
2019-03-15T07:29:19.205Z,85.3
2019-03-15T07:30:16.479Z,85.2
2019-03-15T07:31:16.516Z,85.5
2019-03-15T07:32:16.779Z,85.8
2019-03-15T07:33:17.044Z,85.7
2019-03-15T07:34:16.324Z,85.7
2019-03-15T07:35:16.623Z,86.0
2019-03-15T07:36:16.891Z,85.9
2019-03-15T07:37:17.430Z,86.1
2019-03-15T07:38:16.700Z,85.2
2019-03-15T07:39:16.965Z,85.3
2019-03-15T07:40:18.532Z,85.2
2019-03-15T07:41:16.288Z,85.2
2019-03-15T07:42:16.888Z,85.2
2019-03-15T07:43:20.260Z,85.2
2019-03-15T07:44:16.581Z,85.2
2019-03-15T07:45:16.853Z,85.2
2019-03-15T07:46:17.126Z,85.2
2019-03-15T07:47:16.397Z,85.2
2019-03-15T07:48:23.029Z,85.5
2019-03-15T07:49:16.507Z,85.2
2019-03-15T07:50:16.789Z,85.2
2019-03-15T07:51:16.820Z,85.2
2019-03-15T07:52:17.089Z,85.5
2019-03-15T07:53:16.358Z,85.3
2019-03-15T07:54:16.624Z,85.4
2019-03-15T07:55:16.900Z,86.0
2019-03-15T07:56:17.191Z,85.8
2019-03-15T07:57:16.469Z,86.1
2019-03-15T07:58:16.732Z,86.2
2019-03-15T07:59:17.005Z,86.5
2019-03-15T08:00:16.286Z,86.4
2019-03-15T08:01:16.425Z,86.7
2019-03-15T08:02:16.709Z,86.7
2019-03-15T08:03:17.115Z,86.8
2019-03-15T08:04:17.836Z,86.9
2019-03-15T08:05:17.179Z,87.1
2019-03-15T08:06:16.463Z,87.0
2019-03-15T08:07:20.387Z,87.6
2019-03-15T08:08:16.670Z,87.3
2019-03-15T08:09:16.935Z,87.6
2019-03-15T08:10:17.259Z,87.6
2019-03-15T08:11:16.288Z,87.5
2019-03-15T08:12:16.563Z,87.7
2019-03-15T08:13:16.824Z,87.6
2019-03-15T08:14:17.113Z,87.7
2019-03-15T08:15:16.408Z,88.2
2019-03-15T08:16:16.678Z,87.6
2019-03-15T08:17:16.943Z,87.5
2019-03-15T08:18:17.216Z,87.7
2019-03-15T08:19:16.482Z,87.5
2019-03-15T08:20:16.759Z,87.1
2019-03-15T08:21:16.804Z,87.3
2019-03-15T08:22:17.161Z,87.2
2019-03-15T08:23:16.449Z,87.8
2019-03-15T08:24:17.211Z,87.3
2019-03-15T08:25:16.513Z,87.2
2019-03-15T08:26:16.782Z,87.7
2019-03-15T08:27:17.042Z,87.7
2019-03-15T08:28:16.309Z,87.7
2019-03-15T08:29:16.587Z,87.8
2019-03-15T08:30:16.856Z,88.3
2019-03-15T08:31:16.891Z,87.7
2019-03-15T08:32:17.158Z,87.3
2019-03-15T08:33:16.424Z,87.8
2019-03-15T08:34:16.703Z,88.0
2019-03-15T08:35:17.001Z,88.4
2019-03-15T08:36:16.281Z,88.0
2019-03-15T08:37:16.560Z,88.3
2019-03-15T08:38:16.827Z,88.4
2019-03-15T08:39:17.108Z,88.8
2019-03-15T08:40:16.375Z,89.0
2019-03-15T08:41:16.424Z,89.1
2019-03-15T08:42:16.689Z,89.1
2019-03-15T08:43:16.966Z,89.3
2019-03-15T08:44:17.229Z,89.7
2019-03-15T08:45:16.512Z,90.2
2019-03-15T08:46:16.768Z,90.2
2019-03-15T08:47:17.088Z,90.2
2019-03-15T08:48:16.367Z,90.3
2019-03-15T08:49:16.625Z,90.5
2019-03-15T08:50:16.946Z,90.5
2019-03-15T08:51:16.948Z,90.9
2019-03-15T08:52:17.212Z,90.9
2019-03-15T08:53:16.481Z,91.2
2019-03-15T08:54:16.740Z,91.1
2019-03-15T08:55:17.007Z,91.3
2019-03-15T08:56:16.269Z,91.4
2019-03-15T08:57:16.538Z,92.0
2019-03-15T08:58:22.427Z,92.0
2019-03-15T08:59:16.808Z,92.2
2019-03-15T09:00:17.098Z,92.3
2019-03-15T09:01:17.171Z,92.2
2019-03-15T09:02:16.432Z,92.4
2019-03-15T09:03:28.474Z,92.6
2019-03-15T09:04:17.011Z,92.4
2019-03-15T09:05:16.283Z,91.9
2019-03-15T09:06:16.556Z,91.8
2019-03-15T09:07:16.835Z,91.7
2019-03-15T09:08:17.094Z,91.9
2019-03-15T09:09:16.360Z,92.0
2019-03-15T09:10:24.145Z,92.0
2019-03-15T09:11:16.681Z,91.7
2019-03-15T09:12:16.954Z,91.6
2019-03-15T09:13:17.224Z,91.8
2019-03-15T09:14:16.491Z,92.7
2019-03-15T09:15:16.756Z,92.3
2019-03-15T09:16:17.009Z,92.5
2019-03-15T09:17:16.262Z,92.3
2019-03-15T09:18:16.535Z,91.9
2019-03-15T09:19:16.888Z,92.5
2019-03-15T09:20:17.162Z,92.3
2019-03-15T09:21:17.233Z,92.3
2019-03-15T09:22:16.501Z,92.4
2019-03-15T09:23:16.780Z,92.3
2019-03-15T09:24:17.035Z,92.7
2019-03-15T09:25:20.817Z,92.7
2019-03-15T09:26:16.334Z,92.7
2019-03-15T09:27:16.607Z,92.7
2019-03-15T09:28:16.866Z,92.5
2019-03-15T09:29:17.137Z,92.9
2019-03-15T09:30:24.311Z,92.9
2019-03-15T09:31:16.465Z,92.9
2019-03-15T09:32:16.736Z,93.1
2019-03-15T09:33:17.000Z,93.6
2019-03-15T09:34:16.286Z,94.1
2019-03-15T09:35:16.592Z,93.7
2019-03-15T09:36:16.857Z,93.7
2019-03-15T09:37:17.126Z,93.8
2019-03-15T09:38:16.396Z,94.1
2019-03-15T09:39:16.655Z,94.2
2019-03-15T09:40:16.938Z,94.4
2019-03-15T09:41:32.149Z,94.8
2019-03-15T09:42:16.725Z,94.6
2019-03-15T09:43:16.998Z,94.7
2019-03-15T09:44:16.266Z,94.7
2019-03-15T09:45:16.540Z,94.8
2019-03-15T09:46:16.803Z,95.0
2019-03-15T09:47:17.057Z,95.1
2019-03-15T09:48:16.322Z,95.2
2019-03-15T09:49:16.594Z,95.2
2019-03-15T09:50:34.177Z,95.4
2019-03-15T09:51:17.144Z,95.4
2019-03-15T09:52:16.405Z,95.6
2019-03-15T09:53:16.672Z,95.6
2019-03-15T09:54:16.936Z,95.5
2019-03-15T09:55:17.210Z,95.4
2019-03-15T09:56:16.474Z,95.5
2019-03-15T09:57:16.740Z,95.7
2019-03-15T09:58:17.001Z,95.5
2019-03-15T09:59:19.636Z,95.3
2019-03-15T10:00:16.917Z,95.2
2019-03-15T10:01:34.963Z,95.2
2019-03-15T10:02:30.525Z,95.0
2019-03-15T10:03:22.743Z,95.3
2019-03-15T10:04:17.450Z,95.3
2019-03-15T10:05:16.730Z,94.8
2019-03-15T10:06:19.764Z,94.6
2019-03-15T10:07:17.291Z,94.4
2019-03-15T10:08:16.601Z,93.8
2019-03-15T10:09:16.874Z,93.9
2019-03-15T10:10:19.257Z,94.1
2019-03-15T10:11:17.186Z,94.0
2019-03-15T10:12:16.457Z,93.7
2019-03-15T10:13:16.727Z,93.2
2019-03-15T10:14:16.986Z,93.0
2019-03-15T10:15:16.272Z,93.5
2019-03-15T10:16:16.576Z,93.9
2019-03-15T10:17:16.852Z,93.7
2019-03-15T10:18:17.116Z,93.8
2019-03-15T10:19:16.387Z,93.9
2019-03-15T10:20:16.674Z,94.0
2019-03-15T10:21:16.715Z,93.8
2019-03-15T10:22:17.060Z,93.6
2019-03-15T10:23:16.324Z,93.8
2019-03-15T10:24:16.663Z,94.0
2019-03-15T10:25:16.950Z,93.8
2019-03-15T10:26:17.231Z,93.8
2019-03-15T10:27:16.514Z,93.9
2019-03-15T10:28:16.778Z,93.8
2019-03-15T10:29:19.885Z,93.3
2019-03-15T10:30:17.168Z,93.5
2019-03-15T10:31:17.198Z,93.2
2019-03-15T10:32:16.486Z,93.2
2019-03-15T10:33:16.743Z,93.0
2019-03-15T10:34:17.014Z,93.3
2019-03-15T10:35:16.297Z,93.3
2019-03-15T10:36:16.574Z,93.6
2019-03-15T10:37:16.849Z,93.8
2019-03-15T10:38:17.115Z,93.9
2019-03-15T10:39:16.386Z,94.0
2019-03-15T10:40:16.666Z,94.2
2019-03-15T10:41:16.711Z,94.2
2019-03-15T10:42:16.972Z,94.3
2019-03-15T10:43:17.246Z,94.2
2019-03-15T10:44:16.526Z,94.4
2019-03-15T10:45:16.799Z,94.5
2019-03-15T10:46:17.062Z,94.5
2019-03-15T10:47:16.333Z,94.6
2019-03-15T10:48:25.736Z,94.3
2019-03-15T10:49:17.043Z,94.1
2019-03-15T10:50:16.324Z,94.3
2019-03-15T10:51:16.372Z,94.8
2019-03-15T10:52:16.630Z,94.7
2019-03-15T10:53:16.886Z,94.7
2019-03-15T10:54:17.159Z,94.8
2019-03-15T10:55:16.418Z,94.9
2019-03-15T10:56:16.694Z,94.5
2019-03-15T10:57:16.954Z,94.7
2019-03-15T10:58:17.205Z,94.5
2019-03-15T10:59:16.470Z,94.4
2019-03-15T11:00:16.800Z,94.4
2019-03-15T11:01:16.799Z,94.5
2019-03-15T11:02:17.065Z,94.8
2019-03-15T11:03:16.327Z,94.5
2019-03-15T11:04:16.595Z,94.1
2019-03-15T11:05:16.856Z,94.2
2019-03-15T11:06:17.121Z,94.2
2019-03-15T11:07:16.412Z,94.0
2019-03-15T11:08:16.683Z,94.2
2019-03-15T11:09:16.958Z,94.6
2019-03-15T11:10:17.259Z,94.7
2019-03-15T11:11:16.275Z,94.8
2019-03-15T11:12:16.565Z,94.7
2019-03-15T11:13:16.835Z,94.3
2019-03-15T11:14:17.107Z,93.9
2019-03-15T11:15:16.385Z,94.0
2019-03-15T11:16:16.663Z,94.2
2019-03-15T11:17:16.926Z,94.3
2019-03-15T11:18:17.198Z,94.2
2019-03-15T11:19:16.465Z,94.6
2019-03-15T11:20:16.738Z,94.4
2019-03-15T11:21:16.770Z,94.4
2019-03-15T11:22:17.030Z,94.3
2019-03-15T11:23:16.297Z,94.5
2019-03-15T11:24:16.574Z,94.6
2019-03-15T11:25:16.845Z,94.6
2019-03-15T11:26:17.123Z,94.8
2019-03-15T11:27:16.401Z,95.0
2019-03-15T11:28:16.667Z,94.8
2019-03-15T11:29:16.933Z,94.6
2019-03-15T11:30:17.208Z,94.6
2019-03-15T11:31:16.261Z,94.7
2019-03-15T11:32:16.527Z,94.9
2019-03-15T11:33:16.789Z,94.9
2019-03-15T11:34:17.065Z,95.2
2019-03-15T11:35:16.335Z,95.0
2019-03-15T11:36:16.604Z,94.9
2019-03-15T11:37:16.862Z,95.2
2019-03-15T11:38:17.135Z,95.1
2019-03-15T11:39:16.402Z,95.2
2019-03-15T11:40:19.693Z,95.5
2019-03-15T11:41:16.725Z,95.4
2019-03-15T11:42:16.999Z,95.3
2019-03-15T11:43:16.264Z,95.3
2019-03-15T11:44:16.539Z,95.5
2019-03-15T11:45:16.808Z,95.7
2019-03-15T11:46:17.075Z,95.8
2019-03-15T11:47:16.368Z,95.9
2019-03-15T11:48:16.654Z,96.0
2019-03-15T11:49:16.916Z,95.8
2019-03-15T11:50:17.191Z,95.8
2019-03-15T11:51:17.229Z,95.9
2019-03-15T11:52:16.499Z,96.1
2019-03-15T11:53:19.118Z,96.2
2019-03-15T11:54:16.391Z,96.2
2019-03-15T11:55:16.679Z,96.0
2019-03-15T11:56:27.295Z,96.0
2019-03-15T11:57:16.672Z,96.1
2019-03-15T11:58:16.932Z,96.3
2019-03-15T11:59:17.200Z,96.3
2019-03-15T12:00:16.481Z,96.3
2019-03-15T12:01:16.556Z,96.4
2019-03-15T12:02:16.820Z,96.5
2019-03-15T12:03:17.094Z,96.4
2019-03-15T12:04:16.365Z,96.4
2019-03-15T12:05:16.629Z,96.7
2019-03-15T12:06:16.891Z,96.5
2019-03-15T12:07:17.161Z,96.5
2019-03-15T12:08:16.432Z,96.5
2019-03-15T12:09:16.707Z,96.3
2019-03-15T12:10:16.996Z,96.2
2019-03-15T12:11:17.030Z,96.2
2019-03-15T12:12:16.304Z,96.2
2019-03-15T12:13:16.576Z,96.2
2019-03-15T12:14:16.858Z,96.2
2019-03-15T12:15:17.122Z,96.0
2019-03-15T12:16:16.391Z,96.1
2019-03-15T12:17:16.656Z,95.8
2019-03-15T12:18:16.929Z,95.5
2019-03-15T12:19:17.211Z,95.5
2019-03-15T12:20:16.482Z,95.6
2019-03-15T12:21:16.540Z,95.5
2019-03-15T12:22:16.804Z,95.6
2019-03-15T12:23:17.074Z,95.8
2019-03-15T12:24:16.346Z,95.9
2019-03-15T12:25:16.620Z,95.8
2019-03-15T12:26:16.889Z,95.8
2019-03-15T12:27:17.162Z,95.8
2019-03-15T12:28:16.526Z,95.8
2019-03-15T12:29:16.790Z,95.9
2019-03-15T12:30:17.068Z,96.0
2019-03-15T12:31:17.234Z,96.0
2019-03-15T12:32:16.500Z,95.9
2019-03-15T12:33:16.773Z,96.2
2019-03-15T12:34:17.035Z,96.2
2019-03-15T12:35:16.328Z,96.3
2019-03-15T12:36:16.585Z,96.2
2019-03-15T12:37:16.861Z,96.1
2019-03-15T12:38:17.126Z,95.8
2019-03-15T12:39:16.398Z,95.8
2019-03-15T12:40:16.686Z,95.6
2019-03-15T12:41:16.712Z,95.2
2019-03-15T12:42:16.991Z,95.0
2019-03-15T12:43:17.262Z,94.9
2019-03-15T12:44:16.533Z,95.2
2019-03-15T12:45:16.893Z,95.1
2019-03-15T12:46:17.159Z,95.0
2019-03-15T12:47:16.435Z,94.7
2019-03-15T12:48:16.711Z,94.1
2019-03-15T12:49:16.983Z,94.1
2019-03-15T12:50:17.260Z,93.6
2019-03-15T12:51:16.312Z,93.4
2019-03-15T12:52:16.581Z,93.3
2019-03-15T12:53:16.847Z,93.5
2019-03-15T12:54:17.128Z,92.5
2019-03-15T12:55:16.415Z,92.4
2019-03-15T12:56:16.674Z,92.3
2019-03-15T12:57:16.948Z,92.1
2019-03-15T12:58:17.225Z,92.2
2019-03-15T12:59:16.499Z,92.2
2019-03-15T13:00:16.758Z,92.0
2019-03-15T13:01:16.828Z,91.8
2019-03-15T13:02:20.627Z,91.8
2019-03-15T13:03:16.925Z,92.6
2019-03-15T13:04:17.189Z,92.6
2019-03-15T13:05:16.472Z,92.5
2019-03-15T13:06:16.792Z,92.5
2019-03-15T13:07:17.057Z,93.2
2019-03-15T13:08:16.436Z,93.0
2019-03-15T13:09:16.697Z,93.1
2019-03-15T13:10:17.003Z,92.5
2019-03-15T13:11:17.014Z,92.3
2019-03-15T13:12:16.277Z,92.7
2019-03-15T13:13:16.641Z,92.2
2019-03-15T13:14:16.905Z,91.9
2019-03-15T13:15:17.177Z,91.8
2019-03-15T13:16:16.444Z,91.3
2019-03-15T13:17:16.713Z,91.7
2019-03-15T13:18:16.982Z,91.6